PDT,Max TemperatureF,Mean TemperatureF,Min TemperatureF,Max Dew PointF,MeanDew PointF,Min DewpointF,Max Humidity, Mean Humidity, Min Humidity, Max Sea Level PressureIn, Mean Sea Level PressureIn, Min Sea Level PressureIn, Max VisibilityMiles, Mean VisibilityMiles, Min VisibilityMiles, Max Wind SpeedMPH, Mean Wind SpeedMPH, Max Gust SpeedMPH,PrecipitationIn, CloudCover, Events, WindDirDegrees
2013-9-1,94,84,73,66,64,62,73,55,36,29.89,29.85,29.79,10,10,10,15,5,23,0.00,5,,258
2013-9-2,96,84,72,65,62,57,79,56,33,29.88,29.83,29.76,10,10,10,16,4,21,0.00,4,,249
2013-9-3,101,88,75,64,59,54,64,43,21,29.86,29.81,29.76,10,10,10,17,5,20,0.00,4,,251
2013-9-4,104,89,74,60,55,49,61,41,20,29.88,29.82,29.78,10,10,10,17,4,21,0.00,2,,237
2013-9-5,104,91,77,55,51,43,45,31,17,29.84,29.81,29.75,10,10,10,18,5,24,0.00,2,,248
2013-9-6,103,90,76,53,47,40,42,29,16,29.83,29.79,29.73,10,10,10,16,3,21,0.00,3,,242
2013-9-7,102,89,76,53,49,42,42,29,16,29.83,29.79,29.74,10,10,10,16,5,35,0.00,2,,223
2013-9-8,96,84,71,56,51,46,53,36,19,29.81,29.76,29.70,10,10,10,16,4,21,0.00,2,,242
2013-9-9,90,81,71,61,52,42,53,38,23,29.79,29.74,29.68,10,10,10,18,6,25,0.00,5,Rain-Thunderstorm,250
2013-9-10,89,75,61,57,55,48,90,58,26,29.91,29.84,29.76,10,9,5,17,7,22,0.00,2,,254
2013-9-11,87,74,60,58,56,53,84,58,32,29.97,29.92,29.87,10,9,6,15,6,20,0.00,1,Fog,247
2013-9-12,94,79,63,58,51,36,84,50,15,29.91,29.85,29.77,10,8,5,15,4,20,0.00,0,,245
2013-9-13,94,79,63,57,50,40,57,38,18,29.80,29.71,29.63,10,10,10,15,4,20,0.00,0,,249
2013-9-14,99,84,68,56,53,47,61,40,18,29.68,29.64,29.57,10,10,6,15,4,25,0.00,0,,270
2013-9-15,101,84,67,56,52,46,63,40,16,29.74,29.69,29.64,10,10,8,17,5,24,0.00,0,,263
2013-9-16,101,84,66,56,50,41,63,39,14,29.79,29.74,29.67,10,10,9,20,4,25,0.00,0,,249
2013-9-17,89,76,62,57,54,48,78,52,26,29.78,29.74,29.67,10,10,10,16,5,24,0.00,0,,255
2013-9-18,83,72,60,58,56,51,90,62,34,29.82,29.76,29.70,10,6,2,14,4,18,0.00,3,,242
2013-9-19,87,74,60,59,57,54,84,59,34,29.81,29.76,29.70,10,9,6,16,5,21,0.00,0,Fog,247
2013-9-20,78,71,63,59,59,57,90,70,50,29.89,29.83,29.79,10,6,2,15,5,18,0.00,5,,238
2013-9-21,80,71,62,59,56,51,90,65,39,29.89,29.84,29.76,10,8,3,16,7,23,0.00,6,,252
2013-9-22,80,69,57,55,50,44,84,56,28,29.83,29.79,29.75,10,10,9,15,5,20,0.00,2,,254
2013-9-23,94,76,57,48,40,31,62,37,11,29.86,29.82,29.77,10,10,10,14,3,21,0.00,0,,279
2013-9-24,90,76,62,45,40,29,48,32,16,29.92,29.85,29.80,10,10,10,20,5,25,0.00,1,,250
2013-9-25,81,70,59,54,48,43,60,45,29,29.82,29.74,29.67,10,10,10,20,4,28,0.00,1,,240
2013-9-26,75,68,60,55,45,28,84,52,20,29.87,29.76,29.69,10,10,10,20,7,31,T,3,,253
2013-9-27,85,68,51,43,31,15,64,36,8,29.97,29.92,29.87,10,10,10,12,3,16,0.00,0,,282
2013-9-28,90,72,54,32,24,12,36,21,6,30.02,29.97,29.91,10,10,10,16,3,22,0.00,0,,296
2013-9-29,90,73,56,41,30,17,40,24,7,30.04,29.99,29.93,10,10,10,16,4,22,0.00,0,,262
2013-9-30,89,73,57,46,37,23,47,29,11,29.96,29.89,29.83,10,10,10,15,4,24,0.00,0,,265